createdAt,value
2022-12-27T00:00:48.242Z,1087.49
2022-12-27T00:01:48.336Z,1096.45
2022-12-27T00:02:48.276Z,1110.18
2022-12-27T00:03:48.272Z,1079.55
2022-12-27T00:04:48.196Z,1047.24
2022-12-27T00:05:48.185Z,1022.29
2022-12-27T00:06:48.233Z,989.58
2022-12-27T00:07:48.202Z,977.94
2022-12-27T00:08:48.159Z,967.27
2022-12-27T00:09:48.126Z,948.64
2022-12-27T00:10:48.142Z,939.93
2022-12-27T00:11:48.135Z,957.52
2022-12-27T00:12:48.142Z,938.60
2022-12-27T00:13:48.141Z,938.60
2022-12-27T00:14:48.116Z,942.59
2022-12-27T00:15:48.191Z,934.65
2022-12-27T00:16:48.090Z,962.37
2022-12-27T00:17:48.056Z,963.07
2022-12-27T00:18:48.150Z,954.77
2022-12-27T00:19:48.083Z,944.60
2022-12-27T00:20:48.121Z,932.03
2022-12-27T00:21:48.025Z,912.83
2022-12-27T00:22:48.015Z,884.31
2022-12-27T00:23:48.136Z,871.56
2022-12-27T00:24:48.029Z,863.64
2022-12-27T00:25:48.012Z,844.44
2022-12-27T00:26:47.995Z,831.77
2022-12-27T00:27:47.962Z,822.51
2022-12-27T00:28:47.956Z,806.06
2022-12-27T00:29:47.960Z,798.80
2022-12-27T00:30:47.959Z,784.66
2022-12-27T00:31:48.091Z,772.36
2022-12-27T00:32:47.957Z,767.90
2022-12-27T00:33:47.917Z,766.13
2022-12-27T00:34:47.970Z,762.61
2022-12-27T00:35:47.897Z,764.37
2022-12-27T00:36:47.891Z,777.32
2022-12-27T00:37:47.896Z,790.26
2022-12-27T00:38:47.905Z,807.53
2022-12-27T00:39:47.848Z,832.81
2022-12-27T00:40:47.853Z,846.59
2022-12-27T00:41:47.863Z,863.64
2022-12-27T00:42:47.873Z,879.05
2022-12-27T00:43:47.824Z,900.47
2022-12-27T00:44:47.814Z,917.24
2022-12-27T00:45:47.908Z,935.96
2022-12-27T00:46:47.813Z,949.32
2022-12-27T00:47:47.827Z,978.66
2022-12-27T00:48:47.836Z,996.25
2022-12-27T00:49:47.774Z,999.25
2022-12-27T00:50:47.792Z,1003.77
2022-12-27T00:51:47.759Z,1007.58
2022-12-27T00:52:47.712Z,1016.04
2022-12-27T00:53:47.832Z,1034.21
2022-12-27T00:54:47.709Z,1034.21
2022-12-27T00:55:47.719Z,1037.44
2022-12-27T00:56:47.771Z,1037.44
2022-12-27T00:57:47.666Z,1019.94
2022-12-27T00:58:47.687Z,1009.87
2022-12-27T00:59:47.692Z,1022.29
2022-12-27T01:00:47.677Z,1023.86
2022-12-27T01:01:47.796Z,1033.41
2022-12-27T01:02:47.646Z,1030.21
2022-12-27T01:03:47.643Z,1007.58
2022-12-27T01:04:47.638Z,976.51
2022-12-27T01:05:47.585Z,937.28
2022-12-27T01:06:47.610Z,905.99
2022-12-27T01:07:47.593Z,875.00
2022-12-27T01:08:47.630Z,819.47
2022-12-27T01:09:47.561Z,763.05
2022-12-27T01:10:47.613Z,705.24
2022-12-27T01:11:47.546Z,665.67
2022-12-27T01:12:47.655Z,615.70
2022-12-27T01:13:47.663Z,575.68
2022-12-27T01:14:47.648Z,537.92
2022-12-27T01:15:47.507Z,505.20
2022-12-27T01:16:47.670Z,475.89
2022-12-27T01:17:47.482Z,449.18
2022-12-27T01:18:47.472Z,425.31
2022-12-27T01:19:47.521Z,405.83
2022-12-27T01:20:47.460Z,388.73
2022-12-27T01:21:47.444Z,372.43
2022-12-27T01:22:47.492Z,360.92
2022-12-27T01:23:47.401Z,349.72
2022-12-27T01:24:47.398Z,343.48
2022-12-27T01:25:47.468Z,336.41
2022-12-27T01:26:47.395Z,329.95
2022-12-27T01:27:47.388Z,325.36
2022-12-27T01:28:47.499Z,321.52
2022-12-27T01:29:47.345Z,319.94
2022-12-27T01:30:47.343Z,320.26
2022-12-27T01:31:47.494Z,324.71
2022-12-27T01:32:47.348Z,331.96
2022-12-27T01:33:47.308Z,345.65
2022-12-27T01:34:47.407Z,361.72
2022-12-27T01:35:47.291Z,371.17
2022-12-27T01:36:47.278Z,384.90
2022-12-27T01:37:47.343Z,393.10
2022-12-27T01:38:47.256Z,395.67
2022-12-27T01:39:47.247Z,401.17
2022-12-27T01:40:47.374Z,401.90
2022-12-27T01:41:47.229Z,408.32
2022-12-27T01:42:47.223Z,415.73
2022-12-27T01:43:47.255Z,422.61
2022-12-27T01:44:47.201Z,432.79
2022-12-27T01:45:47.278Z,436.49
2022-12-27T01:46:47.189Z,443.18
2022-12-27T01:47:47.170Z,459.11
2022-12-27T01:48:47.213Z,477.60
2022-12-27T01:49:47.165Z,484.92
2022-12-27T01:50:47.149Z,494.30
2022-12-27T01:51:47.229Z,506.74
2022-12-27T01:52:47.136Z,516.99
2022-12-27T01:53:47.118Z,536.19
2022-12-27T01:54:47.196Z,564.91
2022-12-27T01:55:47.100Z,599.04
2022-12-27T01:56:47.084Z,640.63
2022-12-27T01:57:47.154Z,687.01
2022-12-27T01:58:47.068Z,734.07
2022-12-27T01:59:47.054Z,784.20
2022-12-27T02:00:47.129Z,840.71
2022-12-27T02:01:47.115Z,904.76
2022-12-27T02:02:47.098Z,954.77
2022-12-27T02:03:47.089Z,1011.41
2022-12-27T02:04:47.014Z,1055.56
2022-12-27T02:05:47.013Z,1096.45
2022-12-27T02:06:47.062Z,1129.99
2022-12-27T02:07:47.007Z,1179.08
2022-12-27T02:08:46.959Z,1203.62
2022-12-27T02:09:47.052Z,1255.90
2022-12-27T02:10:46.977Z,1296.30
2022-12-27T02:11:46.978Z,1323.38
2022-12-27T02:12:46.999Z,1353.00
2022-12-27T02:13:46.947Z,1392.67
2022-12-27T02:14:46.947Z,1417.91
2022-12-27T02:15:46.934Z,1440.95
2022-12-27T02:16:47.152Z,1472.87
2022-12-27T02:17:46.963Z,1477.78
2022-12-27T02:18:46.957Z,1482.72
2022-12-27T02:19:46.923Z,1489.36
2022-12-27T02:20:46.872Z,1508.79
2022-12-27T02:21:46.869Z,1536.68
2022-12-27T02:22:46.851Z,1550.12
2022-12-27T02:23:46.944Z,1560.12
2022-12-27T02:24:46.892Z,1589.01
2022-12-27T02:25:46.827Z,1609.19
2022-12-27T02:26:46.882Z,1651.15
2022-12-27T02:27:46.797Z,1722.80
2022-12-27T02:28:46.964Z,1787.63
2022-12-27T02:29:46.801Z,1847.22
2022-12-27T02:30:46.821Z,1966.00
2022-12-27T02:31:46.815Z,2109.44
2022-12-27T02:32:46.725Z,2171.43
2022-12-27T02:33:46.718Z,2198.35
2022-12-27T02:34:46.810Z,2212.98
2022-12-27T02:35:46.731Z,2239.06
2022-12-27T02:36:46.724Z,2261.90
2022-12-27T02:37:46.722Z,2307.02
2022-12-27T02:38:46.756Z,2287.19
2022-12-27T02:39:46.757Z,2309.03
2022-12-27T02:40:46.677Z,2321.12
2022-12-27T02:41:46.688Z,2281.30
2022-12-27T02:42:46.633Z,2275.45
2022-12-27T02:43:46.637Z,2222.22
2022-12-27T02:44:46.677Z,2200.17
2022-12-27T02:45:46.658Z,2173.20
2022-12-27T02:46:46.629Z,2164.36
2022-12-27T02:47:46.671Z,2150.36
2022-12-27T02:48:46.605Z,2167.89
2022-12-27T02:49:46.570Z,2173.20
2022-12-27T02:50:46.630Z,2229.67
2022-12-27T02:51:46.555Z,2377.12
2022-12-27T02:52:46.551Z,2507.07
2022-12-27T02:53:46.603Z,2582.52
2022-12-27T02:54:46.519Z,2625.86
2022-12-27T02:55:46.536Z,2695.03
2022-12-27T02:56:46.562Z,2811.84
2022-12-27T02:57:46.511Z,2919.87
2022-12-27T02:58:46.484Z,3019.30
2022-12-27T02:59:46.548Z,3045.22
2022-12-27T03:00:46.456Z,3085.85
2022-12-27T03:01:46.535Z,3161.02
2022-12-27T03:02:46.622Z,3228.16
2022-12-27T03:03:46.452Z,3267.81
2022-12-27T03:04:46.418Z,3273.85
2022-12-27T03:05:46.546Z,3310.52
2022-12-27T03:06:46.399Z,3320.85
2022-12-27T03:07:46.404Z,3327.08
2022-12-27T03:08:46.449Z,3388.53
2022-12-27T03:09:46.369Z,3470.32
2022-12-27T03:10:46.359Z,3445.60
2022-12-27T03:11:46.437Z,3459.04
2022-12-27T03:12:46.339Z,3425.63
2022-12-27T03:13:46.347Z,3436.69
2022-12-27T03:14:46.322Z,3410.26
2022-12-27T03:15:46.376Z,3408.07
2022-12-27T03:16:46.305Z,3302.30
2022-12-27T03:17:46.298Z,3249.85
2022-12-27T03:18:46.369Z,3224.24
2022-12-27T03:19:46.275Z,3187.54
2022-12-27T03:20:46.297Z,3178.02
2022-12-27T03:21:46.351Z,3206.75
2022-12-27T03:22:46.253Z,3214.50
2022-12-27T03:23:46.234Z,3237.98
2022-12-27T03:24:46.275Z,3273.85
2022-12-27T03:25:46.217Z,3329.16
2022-12-27T03:26:46.216Z,3373.49
2022-12-27T03:27:46.216Z,3434.47
2022-12-27T03:28:46.297Z,3447.83
2022-12-27T03:29:46.181Z,3463.54
2022-12-27T03:30:46.217Z,3490.81
2022-12-27T03:31:46.152Z,3486.24
2022-12-27T03:32:46.187Z,3483.96
2022-12-27T03:33:46.137Z,3461.29
2022-12-27T03:34:46.152Z,3502.30
2022-12-27T03:35:46.149Z,3465.80
2022-12-27T03:36:46.120Z,3427.83
2022-12-27T03:37:46.119Z,3427.83
2022-12-27T03:38:46.091Z,3403.71
2022-12-27T03:39:46.088Z,3423.42
2022-12-27T03:40:46.123Z,3382.07
2022-12-27T03:41:46.113Z,3432.26
2022-12-27T03:42:46.050Z,3369.22
2022-12-27T03:43:46.052Z,3335.42
2022-12-27T03:44:46.037Z,3337.51
2022-12-27T03:45:46.032Z,3327.08
2022-12-27T03:46:46.149Z,3279.90
2022-12-27T03:47:46.091Z,3277.88
2022-12-27T03:48:46.015Z,3259.80
2022-12-27T03:49:46.027Z,3261.80
2022-12-27T03:50:46.012Z,3245.88
2022-12-27T03:51:46.130Z,3249.85
2022-12-27T03:52:46.011Z,3197.11
2022-12-27T03:53:46.029Z,3189.45
2022-12-27T03:54:45.963Z,3151.66
2022-12-27T03:55:45.941Z,3147.93
2022-12-27T03:56:45.953Z,3125.73
2022-12-27T03:57:45.920Z,3122.06
2022-12-27T03:58:45.904Z,3089.43
2022-12-27T03:59:45.885Z,3118.41
2022-12-27T04:00:45.916Z,3096.62
2022-12-27T04:01:45.947Z,3102.04
2022-12-27T04:02:46.120Z,3078.70
2022-12-27T04:03:45.851Z,3071.59
2022-12-27T04:04:45.849Z,3064.52
2022-12-27T04:05:45.956Z,3052.21
2022-12-27T04:06:45.847Z,3066.28
2022-12-27T04:07:45.813Z,3041.74
2022-12-27T04:08:45.900Z,3036.53
2022-12-27T04:09:45.820Z,3029.61
2022-12-27T04:10:45.809Z,2926.29
2022-12-27T04:11:45.775Z,2891.30
2022-12-27T04:12:45.775Z,2808.87
2022-12-27T04:13:45.777Z,2668.00
2022-12-27T04:14:45.752Z,2615.54
2022-12-27T04:15:45.795Z,2595.12
2022-12-27T04:16:45.729Z,2516.56
2022-12-27T04:17:45.712Z,2488.31
2022-12-27T04:18:45.703Z,2433.67
2022-12-27T04:19:45.828Z,2368.66
2022-12-27T04:20:45.695Z,2349.82
2022-12-27T04:21:45.704Z,2263.83
2022-12-27T04:22:45.706Z,2143.43
2022-12-27T04:23:45.673Z,2112.79
2022-12-27T04:24:45.678Z,2074.88
2022-12-27T04:25:45.659Z,2102.77
2022-12-27T04:26:45.679Z,2133.12
2022-12-27T04:27:45.624Z,2211.14
2022-12-27T04:28:45.607Z,2214.82
2022-12-27T04:29:45.644Z,2220.37
2022-12-27T04:30:45.674Z,2220.37
2022-12-27T04:31:45.655Z,2205.64
2022-12-27T04:32:45.604Z,2194.72
2022-12-27T04:33:45.562Z,2131.41
2022-12-27T04:34:45.550Z,2084.64
2022-12-27T04:35:45.556Z,2057.23
2022-12-27T04:36:45.558Z,2006.03
2022-12-27T04:37:45.530Z,1982.12
2022-12-27T04:38:45.512Z,1927.54
2022-12-27T04:39:45.529Z,1930.33
2022-12-27T04:40:45.509Z,1898.64
2022-12-27T04:41:45.486Z,1917.81
2022-12-27T04:42:45.499Z,1893.24
2022-12-27T04:43:45.520Z,1897.29
2022-12-27T04:44:45.453Z,1849.79
2022-12-27T04:45:45.454Z,1838.29
2022-12-27T04:46:45.473Z,1838.29
2022-12-27T04:47:45.493Z,1808.29
2022-12-27T04:48:45.414Z,1786.43
2022-12-27T04:49:45.415Z,1773.33
2022-12-27T04:50:45.391Z,1751.15
2022-12-27T04:51:45.468Z,1719.46
2022-12-27T04:52:45.393Z,1692.11
2022-12-27T04:53:45.399Z,1660.42
2022-12-27T04:54:45.381Z,1633.91
2022-12-27T04:55:45.378Z,1613.10
2022-12-27T04:56:45.363Z,1595.68
2022-12-27T04:57:45.349Z,1571.18
2022-12-27T04:58:45.328Z,1526.10
2022-12-27T04:59:45.314Z,1563.79
2022-12-27T05:00:45.322Z,1587.11
2022-12-27T05:01:45.405Z,1598.56
2022-12-27T05:02:45.479Z,1615.06
2022-12-27T05:03:45.314Z,1617.02
2022-12-27T05:04:45.283Z,1606.28
2022-12-27T05:05:45.279Z,1616.04
2022-12-27T05:06:45.276Z,1619.97
2022-12-27T05:07:45.261Z,1656.29
2022-12-27T05:08:45.244Z,1644.01
2022-12-27T05:09:45.221Z,1632.90
2022-12-27T05:10:45.204Z,1638.94
2022-12-27T05:11:45.223Z,1646.04
2022-12-27T05:12:45.203Z,1636.92
2022-12-27T05:13:45.175Z,1640.96
2022-12-27T05:14:45.172Z,1619.97
2022-12-27T05:15:45.256Z,1611.14
2022-12-27T05:16:45.198Z,1611.14
2022-12-27T05:17:45.149Z,1608.22
2022-12-27T05:18:45.127Z,1572.10
2022-12-27T05:19:45.134Z,1547.41
2022-12-27T05:20:45.163Z,1508.79
2022-12-27T05:21:45.116Z,1497.75
2022-12-27T05:22:45.094Z,1451.96
2022-12-27T05:23:45.123Z,1401.47
2022-12-27T05:24:45.077Z,1343.43
2022-12-27T05:25:45.068Z,1266.67
2022-12-27T05:26:45.054Z,1188.56
2022-12-27T05:27:45.082Z,1112.04
2022-12-27T05:28:45.044Z,1032.61
2022-12-27T05:29:45.032Z,953.40
2022-12-27T05:30:45.064Z,867.01
2022-12-27T05:31:45.070Z,788.85
2022-12-27T05:32:44.995Z,717.42
2022-12-27T05:33:45.128Z,646.87
2022-12-27T05:34:44.977Z,593.69
2022-12-27T05:35:44.984Z,553.15
2022-12-27T05:36:45.067Z,513.79
2022-12-27T05:37:48.773Z,491.37
2022-12-27T05:38:44.954Z,467.51
2022-12-27T05:39:44.957Z,448.88
2022-12-27T05:40:44.977Z,433.92
2022-12-27T05:41:44.982Z,413.92
2022-12-27T05:42:44.924Z,395.20
2022-12-27T05:43:44.888Z,380.71
2022-12-27T05:44:44.934Z,369.49
2022-12-27T05:45:44.915Z,358.94
2022-12-27T05:46:45.001Z,353.12
2022-12-27T05:47:44.854Z,348.60
2022-12-27T05:48:44.900Z,341.32
2022-12-27T05:49:44.830Z,334.34
2022-12-27T05:50:44.841Z,324.71
2022-12-27T05:51:44.835Z,317.46
2022-12-27T05:52:44.825Z,310.23
2022-12-27T05:53:44.797Z,302.20
2022-12-27T05:54:44.787Z,301.92
2022-12-27T05:55:44.773Z,299.70
2022-12-27T05:56:44.794Z,293.51
2022-12-27T05:57:44.758Z,293.25
2022-12-27T05:58:44.768Z,292.73
2022-12-27T05:59:44.761Z,287.32
2022-12-27T06:00:44.728Z,282.11
2022-12-27T06:01:44.867Z,274.07
2022-12-27T06:02:44.822Z,270.44
2022-12-27T06:03:44.752Z,267.13
2022-12-27T06:04:44.693Z,263.26
2022-12-27T06:05:44.693Z,261.99
2022-12-27T06:06:44.762Z,261.15
2022-12-27T06:07:44.679Z,257.65
2022-12-27T06:08:44.685Z,260.11
2022-12-27T06:09:44.652Z,256.44
2022-12-27T06:10:44.742Z,260.53
2022-12-27T06:11:44.621Z,260.32
2022-12-27T06:12:44.610Z,263.89
2022-12-27T06:13:44.622Z,268.67
2022-12-27T06:14:44.720Z,270.67
2022-12-27T06:15:44.605Z,270.67
2022-12-27T06:16:44.674Z,267.13
2022-12-27T06:17:44.613Z,261.99
2022-12-27T06:18:44.639Z,261.36
2022-12-27T06:19:44.575Z,259.49
2022-12-27T06:20:44.575Z,257.05
2022-12-27T06:21:44.554Z,257.65
2022-12-27T06:22:44.562Z,252.48
2022-12-27T06:23:44.627Z,249.59
2022-12-27T06:24:44.571Z,244.36
2022-12-27T06:25:44.551Z,240.76
2022-12-27T06:26:44.650Z,238.13
2022-12-27T06:27:44.539Z,235.56
2022-12-27T06:28:44.535Z,234.71
2022-12-27T06:29:44.605Z,234.71
2022-12-27T06:30:44.405Z,236.41
2022-12-27T06:31:44.398Z,234.71
2022-12-27T06:32:44.493Z,234.04
2022-12-27T06:33:44.500Z,233.54
2022-12-27T06:34:44.487Z,233.87
2022-12-27T06:35:44.489Z,229.60
2022-12-27T06:36:44.370Z,228.16
2022-12-27T06:37:44.384Z,226.42
2022-12-27T06:38:44.319Z,223.18
2022-12-27T06:39:44.327Z,220.47
2022-12-27T06:40:44.333Z,217.24
2022-12-27T06:41:44.302Z,214.39
2022-12-27T06:42:44.328Z,210.93
2022-12-27T06:43:44.290Z,204.73
2022-12-27T06:44:44.255Z,200.58
2022-12-27T06:45:44.387Z,196.01
2022-12-27T06:46:44.250Z,190.08
2022-12-27T06:47:44.234Z,185.97
2022-12-27T06:48:44.221Z,184.11
2022-12-27T06:49:44.213Z,182.69
2022-12-27T06:50:44.197Z,179.92
2022-12-27T06:51:44.205Z,177.05
2022-12-27T06:52:44.188Z,175.55
2022-12-27T06:53:44.172Z,173.00
2022-12-27T06:54:44.212Z,170.34
2022-12-27T06:55:44.166Z,170.86
2022-12-27T06:56:44.160Z,169.99
2022-12-27T06:57:44.160Z,169.99
2022-12-27T06:58:44.201Z,169.82
2022-12-27T06:59:47.000Z,169.99
2022-12-27T07:00:44.141Z,172.10
2022-12-27T07:01:44.184Z,174.08
2022-12-27T07:02:44.225Z,175.37
2022-12-27T07:03:44.117Z,174.45
2022-12-27T07:04:44.204Z,175.93
2022-12-27T07:05:44.054Z,173.54
2022-12-27T07:06:44.051Z,173.72
2022-12-27T07:07:44.099Z,172.82
2022-12-27T07:08:44.025Z,172.46
2022-12-27T07:09:44.056Z,172.28
2022-12-27T07:10:44.026Z,171.92
2022-12-27T07:11:44.016Z,170.86
2022-12-27T07:12:44.009Z,169.99
2022-12-27T07:13:44.000Z,168.78
2022-12-27T07:14:43.991Z,166.08
2022-12-27T07:15:43.961Z,164.12
2022-12-27T07:16:44.034Z,160.94
2022-12-27T07:17:43.953Z,157.28
2022-12-27T07:18:43.955Z,153.93
2022-12-27T07:19:43.968Z,152.66
2022-12-27T07:20:43.931Z,150.32
2022-12-27T07:21:43.932Z,148.70
2022-12-27T07:22:43.927Z,148.04
2022-12-27T07:23:43.915Z,147.12
2022-12-27T07:24:43.881Z,145.45
2022-12-27T07:25:43.887Z,144.94
2022-12-27T07:26:43.909Z,142.46
2022-12-27T07:27:43.875Z,140.77
2022-12-27T07:28:43.842Z,139.59
2022-12-27T07:29:45.884Z,138.89
2022-12-27T07:30:43.825Z,137.62
2022-12-27T07:31:43.853Z,137.51
2022-12-27T07:32:43.813Z,137.85
2022-12-27T07:33:43.801Z,137.85
2022-12-27T07:34:43.824Z,137.74
2022-12-27T07:35:45.302Z,137.06
2022-12-27T07:36:43.778Z,138.77
2022-12-27T07:37:43.868Z,138.08
2022-12-27T07:38:43.760Z,139.12
2022-12-27T07:39:43.780Z,140.41
2022-12-27T07:40:43.813Z,140.89
2022-12-27T07:41:43.723Z,142.58
2022-12-27T07:42:43.729Z,145.83
2022-12-27T07:43:43.732Z,149.10
2022-12-27T07:44:43.685Z,151.00
2022-12-27T07:45:43.757Z,155.66
2022-12-27T07:46:43.703Z,159.09
2022-12-27T07:47:43.663Z,162.35
2022-12-27T07:48:43.670Z,165.42
2022-12-27T07:49:43.679Z,166.08
2022-12-27T07:50:43.626Z,164.77
2022-12-27T07:51:43.640Z,167.25
2022-12-27T07:52:43.604Z,169.82
2022-12-27T07:53:43.652Z,172.28
2022-12-27T07:54:43.620Z,175.55
2022-12-27T07:55:43.574Z,176.67
2022-12-27T07:56:43.591Z,180.31
2022-12-27T07:57:43.564Z,181.49
2022-12-27T07:58:43.546Z,181.69
2022-12-27T07:59:43.551Z,180.51
2022-12-27T08:00:43.560Z,182.49
2022-12-27T08:01:43.689Z,181.30
2022-12-27T08:02:43.545Z,181.10
2022-12-27T08:03:43.547Z,179.73
2022-12-27T08:04:43.511Z,178.96
2022-12-27T08:05:43.493Z,178.38
2022-12-27T08:06:43.497Z,180.12
2022-12-27T08:07:43.506Z,181.30
2022-12-27T08:08:43.549Z,182.29
2022-12-27T08:09:43.457Z,184.93
2022-12-27T08:10:43.464Z,185.97
2022-12-27T08:11:43.498Z,193.57
2022-12-27T08:12:43.470Z,198.99
2022-12-27T08:13:43.440Z,202.82
2022-12-27T08:14:43.418Z,210.12
2022-12-27T08:15:43.387Z,217.10
2022-12-27T08:16:43.432Z,224.56
2022-12-27T08:17:43.393Z,230.90
2022-12-27T08:18:43.373Z,238.31
2022-12-27T08:19:43.375Z,244.73
2022-12-27T08:20:43.364Z,251.32
2022-12-27T08:21:43.326Z,255.44
2022-12-27T08:22:43.353Z,255.84
2022-12-27T08:23:43.323Z,255.84
2022-12-27T08:24:43.428Z,256.85
2022-12-27T08:25:48.440Z,258.67
2022-12-27T08:26:43.297Z,258.67
2022-12-27T08:27:43.307Z,259.70
2022-12-27T08:28:43.268Z,255.44
2022-12-27T08:29:43.248Z,252.09
2022-12-27T08:30:43.330Z,251.12
2022-12-27T08:31:43.232Z,260.32
2022-12-27T08:32:43.246Z,273.16
2022-12-27T08:33:43.236Z,292.46
2022-12-27T08:34:43.244Z,320.89
2022-12-27T08:35:52.769Z,350.10
2022-12-27T08:36:55.193Z,387.59
2022-12-27T08:37:43.235Z,421.27
2022-12-27T08:38:43.209Z,486.34
2022-12-27T08:39:43.160Z,544.09
2022-12-27T08:40:43.180Z,601.21
2022-12-27T08:41:43.179Z,640.63
2022-12-27T08:42:43.152Z,648.13
2022-12-27T08:43:43.116Z,651.95
2022-12-27T08:44:43.127Z,677.20
2022-12-27T08:45:43.148Z,697.10
2022-12-27T08:46:43.237Z,741.45
2022-12-27T08:47:43.133Z,792.14
2022-12-27T08:48:43.104Z,837.53
2022-12-27T08:49:43.121Z,912.21
2022-12-27T08:50:43.060Z,1003.77
2022-12-27T08:51:43.036Z,1055.56
2022-12-27T08:52:43.030Z,1083.94
2022-12-27T08:53:43.060Z,1087.49
2022-12-27T08:54:43.047Z,1140.65
2022-12-27T08:55:43.007Z,1204.71
2022-12-27T08:56:42.994Z,1255.90
2022-12-27T08:57:43.001Z,1290.01
2022-12-27T08:58:42.968Z,1307.77
2022-12-27T08:59:42.992Z,1319.44
2022-12-27T09:00:42.983Z,1351.63
2022-12-27T09:01:43.076Z,1386.86
2022-12-27T09:02:43.034Z,1383.97
2022-12-27T09:03:42.932Z,1394.13
2022-12-27T09:04:42.931Z,1359.92
2022-12-27T09:05:42.948Z,1300.10
2022-12-27T09:06:42.921Z,1287.51
2022-12-27T09:07:42.922Z,1258.28
2022-12-27T09:08:42.903Z,1212.40
2022-12-27T09:09:42.899Z,1140.65
2022-12-27T09:10:42.855Z,1086.60
2022-12-27T09:11:42.856Z,1009.10
2022-12-27T09:12:42.838Z,968.68
2022-12-27T09:13:42.831Z,994.76
2022-12-27T09:14:42.833Z,1016.82
2022-12-27T09:15:42.855Z,1053.05
2022-12-27T09:16:42.815Z,1084.83
2022-12-27T09:17:42.789Z,1138.70
2022-12-27T09:18:42.777Z,1184.33
2022-12-27T09:19:42.782Z,1247.65
2022-12-27T09:20:42.780Z,1328.67
2022-12-27T09:21:42.743Z,1375.39
2022-12-27T09:22:42.737Z,1453.55
2022-12-27T09:23:42.729Z,1458.33
2022-12-27T09:24:42.717Z,1502.82
2022-12-27T09:25:42.755Z,1494.38
2022-12-27T09:26:42.822Z,1504.53
2022-12-27T09:27:42.683Z,1540.24
2022-12-27T09:28:42.683Z,1589.01
2022-12-27T09:29:48.129Z,1631.90
2022-12-27T09:30:42.724Z,1652.17
2022-12-27T09:31:42.675Z,1688.89
2022-12-27T09:32:42.677Z,1706.22
2022-12-27T09:33:42.632Z,1740.84
2022-12-27T09:34:42.630Z,1781.65
2022-12-27T09:35:42.625Z,1786.43
2022-12-27T09:36:42.614Z,1785.23
2022-12-27T09:37:42.625Z,1860.14
2022-12-27T09:38:42.594Z,1960.21
2022-12-27T09:39:42.573Z,2006.03
2022-12-27T09:40:42.598Z,2025.89
2022-12-27T09:43:01.902Z,1960.21
2022-12-27T09:43:42.536Z,2012.10
2022-12-27T09:44:42.626Z,2102.77
2022-12-27T09:45:42.523Z,2157.34
2022-12-27T09:46:42.549Z,2143.43
2022-12-27T09:47:42.510Z,2196.53
2022-12-27T09:48:42.473Z,2291.13
2022-12-27T09:49:42.488Z,2400.72
2022-12-27T09:50:42.468Z,2488.31
2022-12-27T09:51:42.481Z,2607.84
2022-12-27T09:52:42.460Z,2625.86
2022-12-27T09:53:42.439Z,2602.74
2022-12-27T09:54:42.424Z,2638.89
2022-12-27T09:55:42.412Z,2684.16
2022-12-27T09:57:17.781Z,2684.16
2022-12-27T09:57:42.430Z,2612.97
2022-12-27T09:58:42.467Z,2538.17
2022-12-27T09:59:42.381Z,2497.65
2022-12-27T10:00:46.222Z,2521.33
2022-12-27T10:01:42.624Z,2565.09
2022-12-27T10:02:42.565Z,2526.11
2022-12-27T10:03:42.331Z,2453.87
2022-12-27T10:05:17.945Z,2540.59
2022-12-27T10:05:42.400Z,2615.54
2022-12-27T10:06:42.310Z,2736.62
2022-12-27T10:07:42.283Z,2863.29
2022-12-27T10:08:42.299Z,2942.48
2022-12-27T10:09:42.272Z,3085.85
2022-12-27T10:10:42.303Z,3136.79
2022-12-27T10:11:42.256Z,3159.15
2022-12-27T10:12:42.261Z,3224.24
2022-12-27T10:13:42.252Z,3208.69
2022-12-27T10:14:42.225Z,3147.93
2022-12-27T10:15:42.304Z,3239.95
2022-12-27T10:16:42.208Z,3333.33
2022-12-27T10:17:42.204Z,3341.71
2022-12-27T10:18:42.201Z,3377.78
2022-12-27T10:19:42.185Z,3403.71
2022-12-27T10:20:42.168Z,3468.06
2022-12-27T10:21:42.189Z,3589.74
2022-12-27T10:22:42.166Z,3694.44
2022-12-27T10:23:42.136Z,3789.17
2022-12-27T10:24:42.128Z,3871.91
2022-12-27T10:25:42.127Z,4067.28
2022-12-27T10:26:42.179Z,4202.21
2022-12-27T10:27:42.150Z,4215.53
2022-12-27T10:28:42.082Z,4269.66
2022-12-27T10:29:42.085Z,4335.78
2022-12-27T10:30:42.068Z,4385.82
2022-12-27T10:31:42.051Z,4389.44
2022-12-27T10:32:42.059Z,4273.09
2022-12-27T10:33:42.034Z,4346.40
2022-12-27T10:34:42.023Z,4396.69
2022-12-27T10:35:42.011Z,4451.88
2022-12-27T10:36:42.002Z,4463.09
2022-12-27T10:37:42.035Z,4493.24
2022-12-27T10:38:42.015Z,4474.35
2022-12-27T10:39:41.984Z,4451.88
2022-12-27T10:40:41.956Z,4375.00
2022-12-27T10:41:41.993Z,4205.53
2022-12-27T10:42:42.066Z,3988.00
2022-12-27T10:43:41.924Z,3741.21
2022-12-27T10:44:41.930Z,3570.47
2022-12-27T10:45:41.932Z,3456.79
2022-12-27T10:46:42.028Z,3369.22
2022-12-27T10:47:41.900Z,3232.08
2022-12-27T10:49:18.976Z,3114.75
2022-12-27T10:49:41.892Z,2962.14
2022-12-27T10:50:41.885Z,2885.03
2022-12-27T10:51:41.852Z,2814.81
2022-12-27T10:52:41.859Z,2875.68
2022-12-27T10:53:41.834Z,2891.30
2022-12-27T10:54:41.830Z,2832.80
2022-12-27T10:55:41.849Z,2722.62
2022-12-27T10:56:41.827Z,2703.25
2022-12-27T10:57:41.789Z,2673.37
2022-12-27T10:58:41.782Z,2618.11
2022-12-27T10:59:41.836Z,2835.82
2022-12-27T11:00:41.818Z,3105.66
2022-12-27T11:01:41.998Z,3218.39
2022-12-27T11:02:41.774Z,3191.36
2022-12-27T11:03:41.798Z,3187.54
2022-12-27T11:04:41.716Z,3125.73
2022-12-27T11:05:41.727Z,3112.93
2022-12-27T11:06:41.727Z,3159.15
2022-12-27T11:07:41.721Z,3071.59
2022-12-27T11:08:41.681Z,3195.20
2022-12-27T11:09:46.379Z,3220.34
2022-12-27T11:10:41.667Z,3302.30
2022-12-27T11:11:41.640Z,3352.24
2022-12-27T11:12:41.663Z,3327.08
2022-12-27T11:13:41.615Z,3322.92
2022-12-27T11:14:41.649Z,3412.44
2022-12-27T11:15:41.625Z,3577.67
2022-12-27T11:16:41.647Z,3686.76
2022-12-27T11:17:41.608Z,3661.39
2022-12-27T11:18:41.590Z,3646.33
2022-12-27T11:19:41.579Z,3656.36
2022-12-27T11:20:41.569Z,3582.49
2022-12-27T11:21:41.578Z,3623.98
2022-12-27T11:22:41.567Z,3584.91
2022-12-27T11:23:41.577Z,3472.58
2022-12-27T11:24:41.520Z,3412.44
2022-12-27T11:25:41.523Z,3532.54
2022-12-27T11:26:41.531Z,3563.29
2022-12-27T11:27:41.481Z,3565.68
2022-12-27T11:28:41.496Z,3589.74
2022-12-27T11:29:41.484Z,3430.04
2022-12-27T11:30:41.502Z,3283.95
2022-12-27T11:31:41.554Z,3187.54
2022-12-27T11:32:41.437Z,3053.96
2022-12-27T11:33:41.457Z,2885.03
2022-12-27T11:34:41.457Z,2753.62
2022-12-27T11:35:41.400Z,2662.66
2022-12-27T11:36:41.402Z,2502.35
2022-12-27T11:37:41.373Z,2516.56
2022-12-27T11:38:41.374Z,2652.04
2022-12-27T11:39:41.437Z,2747.93
2022-12-27T11:40:41.361Z,2756.48
2022-12-27T11:41:41.355Z,2794.12
2022-12-27T11:42:41.388Z,2714.28
2022-12-27T11:43:41.355Z,2776.62
2022-12-27T11:44:41.309Z,2811.84
2022-12-27T11:45:41.328Z,2885.03
2022-12-27T11:46:41.366Z,2968.75
2022-12-27T11:47:41.311Z,2932.75
2022-12-27T11:48:41.293Z,2935.98
2022-12-27T11:49:41.260Z,3273.85
2022-12-27T11:50:41.258Z,3525.51
2022-12-27T11:51:41.273Z,3623.98
2022-12-27T11:52:41.240Z,3532.54
2022-12-27T11:53:41.236Z,3707.32
2022-12-27T11:54:41.227Z,3900.29
2022-12-27T11:55:41.219Z,3943.66
2022-12-27T11:56:41.226Z,3923.30
2022-12-27T11:57:41.190Z,3991.00
2022-12-27T11:58:41.191Z,3897.44
2022-12-27T11:59:41.165Z,3813.62
2022-12-27T12:00:41.145Z,3863.47
2022-12-27T12:01:41.227Z,3914.64
2022-12-27T12:02:41.176Z,4127.23
2022-12-27T12:03:41.184Z,4205.53
2022-12-27T12:04:41.112Z,4228.94
2022-12-27T12:05:41.096Z,4198.90
2022-12-27T12:06:41.098Z,4182.39
2022-12-27T12:07:41.078Z,4162.75
2022-12-27T12:08:41.081Z,4364.23
2022-12-27T12:09:41.065Z,4508.47
2022-12-27T12:10:41.077Z,4728.89
2022-12-27T12:11:41.065Z,5000.00
2022-12-27T12:12:41.043Z,5004.70
2022-12-27T12:13:41.017Z,4898.71
2022-12-27T12:14:41.060Z,4805.78
2022-12-27T12:15:41.000Z,4912.28
2022-12-27T12:16:41.018Z,5057.03